Time;durP1;ratioP1;P1;durP2;ratioP2;P2;SDS_P1;SDS_P2;PMS_P1;PMS_P2;Temp;Humidity;BMP_temperature;BMP_pressure;BME280_temperature;BME280_humidity;BME280_pressure;Samples;Min_cycle;Max_cycle;Signal;HPM_P1;HPM_P2
2021/12/28 00:00:01;;;;;;;;;;;;;;;25.46;62.13;96454.75;624071;227;64980;-68
2021/12/28 00:02:30;;;;;;;;;;;;;;;25.45;59.27;96458.53;623725;227;44010;-68
2021/12/28 00:04:57;;;;;;;;;;;;;;;25.46;59.65;96460.14;624223;227;66447;-68
2021/12/28 00:07:25;;;;;;;;;;;;;;;25.44;59.65;96452.37;624139;227;65535;-67
2021/12/28 00:09:52;;;;;;;;;;;;;;;25.44;59.70;96463.13;624151;227;64960;-67
2021/12/28 00:12:20;;;;;;;;;;;;;;;25.45;59.13;96455.84;624142;227;65522;-60
2021/12/28 00:15:03;;;;;;;;;;;;;;;25.44;59.03;96459.65;624141;227;65033;-60
2021/12/28 00:20:05;;;;;;;;;;;;;;;25.44;59.33;96465.03;624197;227;62947;-60
2021/12/28 00:22:33;;;;;;;;;;;;;;;25.43;59.27;96466.94;624167;227;65551;-67
2021/12/28 00:25:00;;;;;;;;;;;;;;;25.43;59.06;96466.14;624161;227;64974;-67
2021/12/28 00:27:28;;;;;;;;;;;;;;;25.41;60.07;96455.69;624152;227;65113;-67
2021/12/28 00:29:55;;;;;;;;;;;;;;;25.42;60.46;96468.02;624208;227;62958;-67
2021/12/28 00:32:23;;;;;;;;;;;;;;;25.41;60.75;96466.45;624241;227;62744;-67
2021/12/28 00:34:50;;;;;;;;;;;;;;;25.41;59.43;96469.14;624172;227;63283;-68
2021/12/28 00:37:18;;;;;;;;;;;;;;;25.41;59.06;96463.75;624213;227;63181;-68
2021/12/28 00:39:45;;;;;;;;;;;;;;;25.41;59.11;96473.73;624177;227;63645;-67
2021/12/28 00:42:14;;;;;;;;;;;;;;;25.40;60.28;96474.81;624169;227;63190;-68
2021/12/28 00:44:41;;;;;;;;;;;;;;;25.38;60.33;96475.14;624260;227;65200;-60
2021/12/28 00:47:09;;;;;;;;;;;;;;;25.37;59.32;96489.71;624185;227;65021;-60
2021/12/28 00:49:36;;;;;;;;;;;;;;;25.38;60.53;96479.73;624233;227;64974;-60
2021/12/28 00:52:04;;;;;;;;;;;;;;;25.38;59.38;96488.59;618976;227;64815;-67
2021/12/28 00:54:32;;;;;;;;;;;;;;;25.37;60.39;96481.64;618935;229;64897;-67
2021/12/28 00:57:01;;;;;;;;;;;;;;;25.38;59.94;96477.05;618977;229;64994;-67
2021/12/28 00:59:29;;;;;;;;;;;;;;;25.37;59.96;96478.13;618979;229;63597;-66
2021/12/28 01:01:56;;;;;;;;;;;;;;;25.36;60.90;96477.34;618968;229;64961;-66
2021/12/28 01:04:24;;;;;;;;;;;;;;;25.35;60.01;96462.33;618969;229;64974;-67
2021/12/28 01:06:52;;;;;;;;;;;;;;;25.35;59.27;96454.25;618959;229;64786;-67
2021/12/28 01:09:19;;;;;;;;;;;;;;;25.35;59.02;96453.47;619014;229;65042;-66
2021/12/28 01:11:47;;;;;;;;;;;;;;;25.35;59.47;96445.40;618994;229;64946;-66
2021/12/28 01:14:14;;;;;;;;;;;;;;;25.34;59.37;96452.65;619010;229;64605;-66
2021/12/28 01:16:42;;;;;;;;;;;;;;;25.34;59.19;96452.65;618945;229;65091;-66
2021/12/28 01:19:09;;;;;;;;;;;;;;;25.33;59.23;96452.98;618926;229;64912;-66
2021/12/28 01:21:37;;;;;;;;;;;;;;;25.33;59.12;96440.31;618945;229;65305;-66
2021/12/28 01:24:05;;;;;;;;;;;;;;;25.32;59.13;96444.13;619016;229;65209;-66
2021/12/28 01:26:32;;;;;;;;;;;;;;;25.33;59.15;96442.22;618972;229;65166;-66
2021/12/28 01:29:00;;;;;;;;;;;;;;;25.32;59.16;96446.81;618940;229;64815;-66
2021/12/28 01:31:27;;;;;;;;;;;;;;;25.30;59.18;96440.95;618964;229;64972;-66
2021/12/28 01:33:54;;;;;;;;;;;;;;;25.30;59.10;96435.56;618948;229;65281;-66
2021/12/28 01:36:22;;;;;;;;;;;;;;;25.30;59.07;96429.41;619007;229;64951;-66
2021/12/28 01:38:50;;;;;;;;;;;;;;;25.29;59.29;96425.93;618980;229;65191;-67
2021/12/28 01:41:17;;;;;;;;;;;;;;;25.29;59.18;96425.93;618973;229;64730;-66
2021/12/28 01:43:45;;;;;;;;;;;;;;;25.28;59.16;96421.63;618962;229;62706;-66
2021/12/28 01:46:12;;;;;;;;;;;;;;;25.27;59.14;96428.13;618916;229;62948;-67
2021/12/28 01:48:41;;;;;;;;;;;;;;;25.27;59.18;96430.82;618995;229;63001;-67
2021/12/28 01:51:13;;;;;;;;;;;;;;;25.25;59.13;96428.43;618909;227;62897;-68
2021/12/28 01:53:41;;;;;;;;;;;;;;;25.26;59.17;96429.22;618969;229;65057;-68
2021/12/28 01:56:13;;;;;;;;;;;;;;;25.24;59.26;96420.69;618969;229;65263;-68
2021/12/28 01:58:42;;;;;;;;;;;;;;;25.25;59.15;96433.02;618922;229;64884;-68
2021/12/28 02:01:10;;;;;;;;;;;;;;;25.23;59.20;96427.94;619010;229;65003;-68
2021/12/28 02:03:38;;;;;;;;;;;;;;;25.23;59.23;96424.47;619037;229;62665;-68
2021/12/28 02:06:06;;;;;;;;;;;;;;;25.22;59.28;96426.37;618961;229;62945;-60
2021/12/28 02:08:34;;;;;;;;;;;;;;;25.22;59.18;96426.37;618935;229;62986;-60
2021/12/28 02:11:01;;;;;;;;;;;;;;;25.22;59.16;96433.65;618939;229;62992;-60
2021/12/28 02:13:29;;;;;;;;;;;;;;;25.21;59.24;96426.70;618946;229;62948;-60
2021/12/28 02:15:58;;;;;;;;;;;;;;;25.19;59.24;96424.31;619008;229;62992;-60
2021/12/28 02:18:26;;;;;;;;;;;;;;;25.20;59.17;96425.09;618955;229;64986;-60
2021/12/28 02:20:54;;;;;;;;;;;;;;;25.19;59.25;96435.06;618952;229;64835;-60
2021/12/28 02:23:23;;;;;;;;;;;;;;;25.18;59.33;96430.80;618945;229;64842;-60
2021/12/28 02:25:51;;;;;;;;;;;;;;;25.19;59.28;96435.06;618908;229;62754;-60
2021/12/28 02:28:19;;;;;;;;;;;;;;;25.18;59.36;96436.18;619048;229;62566;-60
2021/12/28 02:30:48;;;;;;;;;;;;;;;25.17;59.45;96436.48;618955;229;62913;-68
2021/12/28 02:33:17;;;;;;;;;;;;;;;25.17;59.38;96439.17;618936;229;62751;-68
2021/12/28 02:35:44;;;;;;;;;;;;;;;25.16;59.38;96437.59;618957;229;62988;-68
2021/12/28 02:38:13;;;;;;;;;;;;;;;25.16;59.39;96437.59;618937;229;63621;-68
2021/12/28 02:40:41;;;;;;;;;;;;;;;25.16;59.45;96440.28;618967;229;62742;-68
2021/12/28 02:43:09;;;;;;;;;;;;;;;25.15;59.62;96444.05;618977;229;62682;-68
2021/12/28 02:45:38;;;;;;;;;;;;;;;25.14;59.48;96443.24;618941;229;65073;-68
2021/12/28 02:48:07;;;;;;;;;;;;;;;25.13;59.43;96446.26;618950;229;65029;-60
2021/12/28 02:50:42;;;;;;;;;;;;;;;25.13;59.64;96451.63;620798;227;64846;-60
2021/12/28 02:53:10;;;;;;;;;;;;;;;25.13;59.65;96446.26;624202;227;65067;-60
2021/12/28 02:55:38;;;;;;;;;;;;;;;25.12;59.56;96455.41;624255;227;64771;-60
2021/12/28 02:58:10;;;;;;;;;;;;;;;25.11;59.58;96449.24;624195;227;62770;-60
2021/12/28 03:00:45;;;;;;;;;;;;;;;25.10;59.76;96447.67;622962;227;63508;-68
2021/12/28 03:03:15;;;;;;;;;;;;;;;25.09;60.75;96450.66;624159;227;63259;-68
2021/12/28 03:05:44;;;;;;;;;;;;;;;25.09;59.96;96450.66;623795;227;62851;-68
2021/12/28 03:08:12;;;;;;;;;;;;;;;25.08;59.85;96449.08;624164;227;64943;-68
2021/12/28 03:10:40;;;;;;;;;;;;;;;25.08;59.69;96449.08;624223;227;64909;-68
2021/12/28 03:13:09;;;;;;;;;;;;;;;25.06;59.86;96452.06;624180;227;64789;-68
2021/12/28 03:15:37;;;;;;;;;;;;;;;25.05;60.14;96445.12;624203;227;62549;-67
2021/12/28 03:18:04;;;;;;;;;;;;;;;25.05;60.71;96444.33;624203;227;62884;-68
2021/12/28 03:20:32;;;;;;;;;;;;;;;25.03;59.93;96442.73;624168;227;62639;-68
2021/12/28 03:22:59;;;;;;;;;;;;;;;25.05;60.71;96436.27;624244;227;62720;-68
2021/12/28 03:25:27;;;;;;;;;;;;;;;25.04;59.88;96446.20;624156;227;62599;-68
2021/12/28 03:27:54;;;;;;;;;;;;;;;25.03;60.80;96439.25;624185;227;62721;-68
2021/12/28 03:30:22;;;;;;;;;;;;;;;25.01;60.45;96450.30;624142;227;62700;-68
2021/12/28 03:32:51;;;;;;;;;;;;;;;25.00;62.32;96440.66;624190;227;62868;-68
2021/12/28 03:35:19;;;;;;;;;;;;;;;24.99;60.82;96441.78;624246;227;64918;-68
2021/12/28 03:37:46;;;;;;;;;;;;;;;25.00;61.78;96442.56;624204;227;64930;-67
2021/12/28 03:40:15;;;;;;;;;;;;;;;24.99;60.18;96440.96;624179;227;65120;-68
2021/12/28 03:42:43;;;;;;;;;;;;;;;24.98;61.24;96447.45;624253;227;62465;-68
2021/12/28 03:45:11;;;;;;;;;;;;;;;24.99;60.88;96440.96;624201;227;64841;-68
2021/12/28 03:47:38;;;;;;;;;;;;;;;24.97;62.30;96441.29;624247;227;64764;-68
2021/12/28 03:50:07;;;;;;;;;;;;;;;24.96;61.73;96437.03;624152;227;64892;-68
2021/12/28 03:52:35;;;;;;;;;;;;;;;24.96;61.10;96439.71;624200;227;65205;-60
2021/12/28 03:55:03;;;;;;;;;;;;;;;24.94;62.29;96439.23;624183;227;64930;-60
2021/12/28 03:57:30;;;;;;;;;;;;;;;24.93;63.31;96434.93;624184;227;64629;-60
2021/12/28 03:59:58;;;;;;;;;;;;;;;24.92;61.33;96441.42;624202;227;64878;-60
2021/12/28 04:02:26;;;;;;;;;;;;;;;24.92;60.31;96440.64;624249;227;64939;-60
2021/12/28 04:04:53;;;;;;;;;;;;;;;24.92;60.92;96444.11;624183;227;65181;-68
2021/12/28 04:07:21;;;;;;;;;;;;;;;24.90;62.52;96442.83;624197;227;64878;-68
2021/12/28 04:12:22;;;;;;;;;;;;;;;24.89;62.52;96442.05;624201;227;64820;-67
2021/12/28 04:14:50;;;;;;;;;;;;;;;24.88;62.82;96435.09;624204;227;64813;-67
2021/12/28 04:17:17;;;;;;;;;;;;;;;24.89;61.71;96438.57;624203;227;65343;-68
2021/12/28 04:19:45;;;;;;;;;;;;;;;24.86;64.25;96442.67;624160;227;65182;-68
2021/12/28 04:22:12;;;;;;;;;;;;;;;24.85;60.99;96441.06;624199;227;64899;-68
2021/12/28 04:24:40;;;;;;;;;;;;;;;24.86;63.79;96441.88;624159;227;62774;-68
2021/12/28 04:27:07;;;;;;;;;;;;;;;24.86;64.30;96452.62;624230;227;65028;-68
2021/12/28 04:29:35;;;;;;;;;;;;;;;24.84;63.27;96449.45;624168;227;62730;-68
2021/12/28 04:32:03;;;;;;;;;;;;;;;24.84;63.89;96444.86;624202;227;63030;-60
2021/12/28 04:34:30;;;;;;;;;;;;;;;24.83;62.12;96448.67;624180;227;64806;-60
2021/12/28 04:36:58;;;;;;;;;;;;;;;24.83;62.77;96455.91;624152;227;64940;-60
2021/12/28 04:39:25;;;;;;;;;;;;;;;24.82;64.53;96463.19;624199;227;65186;-60
2021/12/28 04:41:53;;;;;;;;;;;;;;;24.80;61.72;96460.03;624181;227;64973;-60
2021/12/28 04:44:24;;;;;;;;;;;;;;;24.79;61.48;96453.84;624183;227;65055;-60
2021/12/28 04:46:51;;;;;;;;;;;;;;;24.79;63.13;96453.84;624088;227;65205;-60
2021/12/28 04:49:21;;;;;;;;;;;;;;;24.80;62.81;96449.29;624186;227;64903;-60
2021/12/28 04:51:48;;;;;;;;;;;;;;;24.80;63.84;96455.45;619326;227;65106;-60
2021/12/28 04:54:16;;;;;;;;;;;;;;;24.77;62.67;96452.56;618949;229;62572;-67
2021/12/28 04:56:44;;;;;;;;;;;;;;;24.76;63.14;96445.62;618886;229;62834;-68
2021/12/28 04:59:11;;;;;;;;;;;;;;;24.76;64.44;96446.41;618920;229;64969;-68
2021/12/28 05:01:39;;;;;;;;;;;;;;;24.74;63.60;96440.54;618891;229;65449;-68
2021/12/28 05:04:06;;;;;;;;;;;;;;;24.73;63.67;96449.72;618909;229;65514;-67
2021/12/28 05:06:35;;;;;;;;;;;;;;;24.75;62.23;96460.16;618924;229;65075;-60
2021/12/28 05:09:04;;;;;;;;;;;;;;;24.73;63.39;96456.98;618871;229;65566;-60
2021/12/28 05:11:33;;;;;;;;;;;;;;;24.73;64.64;96456.98;618858;228;64994;-60
2021/12/28 05:14:01;;;;;;;;;;;;;;;24.72;64.53;96461.58;618765;228;65106;-67
2021/12/28 05:16:30;;;;;;;;;;;;;;;24.71;62.73;96462.66;618943;229;65518;-68
2021/12/28 05:18:58;;;;;;;;;;;;;;;24.71;63.57;96453.81;618944;229;64902;-68
2021/12/28 05:21:25;;;;;;;;;;;;;;;24.70;62.10;96449.55;618958;229;65028;-68
2021/12/28 05:23:53;;;;;;;;;;;;;;;24.71;62.84;96459.18;618959;229;65114;-68
2021/12/28 05:26:20;;;;;;;;;;;;;;;24.69;66.13;96450.63;618939;229;65295;-68
2021/12/28 05:28:48;;;;;;;;;;;;;;;24.68;65.69;96446.37;618947;229;64858;-67
2021/12/28 05:31:15;;;;;;;;;;;;;;;24.68;63.94;96443.68;618925;229;63450;-68
2021/12/28 05:33:43;;;;;;;;;;;;;;;24.67;62.61;96444.80;618953;229;65076;-68
2021/12/28 05:36:11;;;;;;;;;;;;;;;24.67;65.30;96444.80;618927;229;65034;-68
2021/12/28 05:38:39;;;;;;;;;;;;;;;24.65;65.60;96444.30;618929;229;65732;-68
2021/12/28 05:41:06;;;;;;;;;;;;;;;24.64;64.87;96443.52;618921;229;65243;-68
2021/12/28 05:43:34;;;;;;;;;;;;;;;24.63;63.50;96446.49;618967;229;62947;-68
2021/12/28 05:46:02;;;;;;;;;;;;;;;24.62;63.65;96431.48;618963;229;63128;-68
2021/12/28 05:48:29;;;;;;;;;;;;;;;24.63;62.49;96427.69;618932;229;63193;-68
2021/12/28 05:50:57;;;;;;;;;;;;;;;24.63;64.40;96433.06;618899;227;62724;-68
2021/12/28 05:53:24;;;;;;;;;;;;;;;24.62;62.98;96426.11;618908;229;63125;-67
2021/12/28 05:55:52;;;;;;;;;;;;;;;24.62;64.88;96420.74;618987;229;63024;-68
2021/12/28 05:58:19;;;;;;;;;;;;;;;24.58;64.82;96424.05;618894;229;62728;-68
2021/12/28 06:00:47;;;;;;;;;;;;;;;24.59;65.18;96424.84;618920;229;62901;-68
2021/12/28 06:03:14;;;;;;;;;;;;;;;24.57;65.24;96429.72;618941;229;62965;-67
2021/12/28 06:05:42;;;;;;;;;;;;;;;24.56;65.11;96434.30;618923;229;62888;-68
2021/12/28 06:08:10;;;;;;;;;;;;;;;24.55;64.20;96435.41;618949;229;63012;-67
2021/12/28 06:10:38;;;;;;;;;;;;;;;24.58;66.36;96445.54;618871;229;64784;-67
2021/12/28 06:13:05;;;;;;;;;;;;;;;24.59;66.43;96449.80;618885;229;65088;-67
2021/12/28 06:15:33;;;;;;;;;;;;;;;24.57;68.13;96451.20;618922;229;65454;-67
2021/12/28 06:18:00;;;;;;;;;;;;;;;24.55;62.67;96451.53;618959;229;65516;-67
2021/12/28 06:20:28;;;;;;;;;;;;;;;24.57;66.65;96451.99;618840;229;65093;-67
2021/12/28 06:22:55;;;;;;;;;;;;;;;24.56;66.90;96450.42;618858;229;65701;-67
2021/12/28 06:25:23;;;;;;;;;;;;;;;24.56;65.50;96452.32;618418;229;65108;-67
2021/12/28 06:27:50;;;;;;;;;;;;;;;24.54;64.48;96446.45;618924;229;64837;-67
2021/12/28 06:30:18;;;;;;;;;;;;;;;24.57;66.40;96440.46;618901;229;65721;-67
2021/12/28 06:32:46;;;;;;;;;;;;;;;24.54;63.98;96449.92;618910;229;63095;-67
2021/12/28 06:35:13;;;;;;;;;;;;;;;24.57;66.04;96451.20;619003;229;64885;-67
2021/12/28 06:37:41;;;;;;;;;;;;;;;24.56;66.37;96449.63;618939;229;65241;-67
2021/12/28 06:40:09;;;;;;;;;;;;;;;24.54;66.90;96449.92;618906;229;66658;-67
2021/12/28 06:42:36;;;;;;;;;;;;;;;24.53;62.85;96452.94;618922;229;64935;-67
2021/12/28 06:45:04;;;;;;;;;;;;;;;24.54;66.16;96451.83;618907;229;65768;-67
2021/12/28 06:47:34;;;;;;;;;;;;;;;24.53;67.26;96448.35;618952;228;45339;-67
2021/12/28 06:50:02;;;;;;;;;;;;;;;24.53;66.45;96440.30;618872;227;62938;-67
2021/12/28 06:52:29;;;;;;;;;;;;;;;24.50;67.34;96448.97;618900;229;65528;-67
2021/12/28 06:54:57;;;;;;;;;;;;;;;24.51;65.41;96444.39;618958;229;65086;-67
2021/12/28 06:57:24;;;;;;;;;;;;;;;24.51;65.09;96445.17;618905;229;66166;-67
2021/12/28 06:59:52;;;;;;;;;;;;;;;24.51;64.07;96442.48;618890;229;65547;-67
2021/12/28 07:02:19;;;;;;;;;;;;;;;24.53;66.22;96442.98;618929;229;65303;-68
2021/12/28 07:04:47;;;;;;;;;;;;;;;24.53;66.77;96448.35;618937;229;66096;-68
2021/12/28 07:07:14;;;;;;;;;;;;;;;24.48;63.40;96442.31;618156;229;65522;-70
2021/12/28 07:09:42;;;;;;;;;;;;;;;24.50;64.79;96448.97;616071;229;65181;-70
2021/12/28 07:12:10;;;;;;;;;;;;;;;24.57;63.27;96445.84;611948;232;64891;-69
2021/12/28 07:14:37;;;;;;;;;;;;;;;24.64;63.80;96450.79;611766;232;65569;-71
2021/12/28 07:17:05;;;;;;;;;;;;;;;24.67;62.75;96444.80;611680;232;64991;-72
2021/12/28 07:19:33;;;;;;;;;;;;;;;24.67;64.04;96450.95;618682;229;64918;-72
2021/12/28 07:22:00;;;;;;;;;;;;;;;24.67;61.38;96447.48;618309;229;65669;-71
2021/12/28 07:24:28;;;;;;;;;;;;;;;24.69;61.84;96442.56;618925;229;64856;-71
2021/12/28 07:26:55;;;;;;;;;;;;;;;24.69;62.42;96445.26;618888;229;64864;-71
2021/12/28 07:29:23;;;;;;;;;;;;;;;24.73;64.13;96433.59;618791;229;65412;-71
2021/12/28 07:31:51;;;;;;;;;;;;;;;24.71;60.25;96430.41;618868;229;65477;-71
2021/12/28 07:34:18;;;;;;;;;;;;;;;24.74;60.97;96434.37;618809;229;64915;-72
2021/12/28 07:36:46;;;;;;;;;;;;;;;24.78;60.70;96435.36;618850;229;63275;-72
2021/12/28 07:39:13;;;;;;;;;;;;;;;24.78;61.11;96430.77;618924;229;62899;-72
2021/12/28 07:41:41;;;;;;;;;;;;;;;24.77;60.39;96434.58;618820;229;65015;-71
2021/12/28 07:44:09;;;;;;;;;;;;;;;24.79;60.36;96437.72;618857;229;63228;-71
2021/12/28 07:46:36;;;;;;;;;;;;;;;24.82;62.31;96436.31;618853;229;62816;-71
2021/12/28 07:49:04;;;;;;;;;;;;;;;24.84;59.92;96438.70;618869;229;62788;-72
2021/12/28 07:51:32;;;;;;;;;;;;;;;24.85;60.03;96442.97;618896;227;62559;-72
2021/12/28 07:53:59;;;;;;;;;;;;;;;24.84;60.10;96449.45;618855;229;61844;-71
2021/12/28 07:56:27;;;;;;;;;;;;;;;24.83;60.42;96447.84;618813;229;62728;-71
2021/12/28 07:58:55;;;;;;;;;;;;;;;24.85;60.24;96445.66;618846;229;65655;-71
2021/12/28 08:01:22;;;;;;;;;;;;;;;24.87;60.73;96438.08;618867;229;64942;-71
2021/12/28 08:03:50;;;;;;;;;;;;;;;24.87;59.48;96438.08;618889;229;64895;-72
2021/12/28 08:06:17;;;;;;;;;;;;;;;24.86;60.23;96439.98;618684;229;64987;-72
2021/12/28 08:08:45;;;;;;;;;;;;;;;24.89;60.09;96436.67;618757;229;64869;-71
2021/12/28 08:11:12;;;;;;;;;;;;;;;24.90;59.96;96443.63;618760;229;64870;-71
2021/12/28 08:13:40;;;;;;;;;;;;;;;24.91;60.75;96445.22;618822;229;65457;-71
2021/12/28 08:16:07;;;;;;;;;;;;;;;24.91;60.44;96450.59;618945;229;65203;-71
2021/12/28 08:18:35;;;;;;;;;;;;;;;24.92;59.93;96444.11;618843;229;64928;-65
2021/12/28 08:21:03;;;;;;;;;;;;;;;24.94;60.04;96444.59;618820;229;65345;-70
2021/12/28 08:23:30;;;;;;;;;;;;;;;24.93;59.54;96444.90;618829;229;65028;-72
2021/12/28 08:25:58;;;;;;;;;;;;;;;24.97;59.55;96443.97;618739;229;64884;-71
2021/12/28 08:28:25;;;;;;;;;;;;;;;24.98;59.64;96439.39;618781;229;63961;-71
2021/12/28 08:30:52;;;;;;;;;;;;;;;24.98;60.16;96442.86;618846;229;65062;-71
2021/12/28 08:33:20;;;;;;;;;;;;;;;25.02;59.17;96448.43;618815;229;64904;-69
2021/12/28 08:35:49;;;;;;;;;;;;;;;25.03;60.03;96441.94;618860;229;65538;-73
2021/12/28 08:38:16;;;;;;;;;;;;;;;25.05;59.94;96445.12;618874;229;64780;-70
2021/12/28 08:40:45;;;;;;;;;;;;;;;25.04;60.16;96435.45;618737;229;64921;-71
2021/12/28 08:43:13;;;;;;;;;;;;;;;25.07;59.99;96437.52;618854;229;65734;-70
2021/12/28 08:45:41;;;;;;;;;;;;;;;25.09;59.66;96439.91;618797;229;63301;-71
2021/12/28 08:48:11;;;;;;;;;;;;;;;25.08;59.16;96441.02;618824;229;65023;-71
2021/12/28 08:50:39;;;;;;;;;;;;;;;25.09;59.63;96432.63;620813;227;63268;-70
2021/12/28 08:53:06;;;;;;;;;;;;;;;25.11;59.16;96427.73;624087;227;63099;-70
2021/12/28 08:55:34;;;;;;;;;;;;;;;25.11;59.75;96427.73;624111;227;63926;-70
2021/12/28 08:58:01;;;;;;;;;;;;;;;25.13;59.98;96430.12;623912;227;63141;-71
2021/12/28 09:00:30;;;;;;;;;;;;;;;25.14;60.22;96427.11;624004;227;62668;-68
2021/12/28 09:02:58;;;;;;;;;;;;;;;25.15;59.68;96417.17;624097;227;65142;-66
2021/12/28 09:05:27;;;;;;;;;;;;;;;25.16;59.68;96414.18;624123;227;65222;-65
2021/12/28 09:07:55;;;;;;;;;;;;;;;25.17;59.96;96409.59;623965;227;63052;-65
2021/12/28 09:10:25;;;;;;;;;;;;;;;25.19;60.99;96410.08;624144;227;62963;-69
2021/12/28 09:12:55;;;;;;;;;;;;;;;25.19;60.68;96408.17;624089;227;65806;-70
2021/12/28 09:15:23;;;;;;;;;;;;;;;25.23;60.79;96402.95;624100;227;65205;-70
2021/12/28 09:17:51;;;;;;;;;;;;;;;25.22;60.71;96402.16;624121;227;64942;-71
2021/12/28 09:20:20;;;;;;;;;;;;;;;25.24;60.61;96393.80;624074;227;63042;-71
2021/12/28 09:22:47;;;;;;;;;;;;;;;25.26;60.60;96396.95;624070;227;65173;-70
2021/12/28 09:25:16;;;;;;;;;;;;;;;25.26;61.17;96391.56;624115;227;65683;-70
2021/12/28 09:27:44;;;;;;;;;;;;;;;25.28;60.83;96388.58;624102;227;63242;-70
2021/12/28 09:30:12;;;;;;;;;;;;;;;25.28;61.89;96383.98;624059;227;65063;-62
2021/12/28 09:32:40;;;;;;;;;;;;;;;25.30;61.08;96381.78;624123;227;65051;-66
2021/12/28 09:35:08;;;;;;;;;;;;;;;25.33;60.07;96380.36;623980;227;65484;-65
2021/12/28 09:37:36;;;;;;;;;;;;;;;25.31;59.31;96377.98;623286;227;66449;-65
2021/12/28 09:40:05;;;;;;;;;;;;;;;25.34;60.24;96369.27;624098;227;65125;-63
2021/12/28 09:42:33;;;;;;;;;;;;;;;25.37;60.38;96370.55;624105;227;65645;-58
2021/12/28 09:45:01;;;;;;;;;;;;;;;25.39;58.84;96363.74;624085;227;65271;-65
2021/12/28 09:47:28;;;;;;;;;;;;;;;25.40;59.47;96361.84;624078;227;65109;-66
2021/12/28 09:49:56;;;;;;;;;;;;;;;25.41;60.37;96364.23;623534;227;65440;-66
2021/12/28 09:52:23;;;;;;;;;;;;;;;25.42;60.87;96367.70;615084;229;64807;-67
2021/12/28 09:54:51;;;;;;;;;;;;;;;25.42;60.71;96363.11;614204;229;65111;-64
2021/12/28 09:57:19;;;;;;;;;;;;;;;25.41;60.90;96363.45;611811;232;65394;-67
2021/12/28 09:59:47;;;;;;;;;;;;;;;25.39;60.71;96361.05;612325;231;65813;-66
2021/12/28 10:02:15;;;;;;;;;;;;;;;25.43;60.96;96353.17;611895;232;64868;-66
2021/12/28 10:04:44;;;;;;;;;;;;;;;25.42;61.14;96359.64;612247;231;62961;-66
2021/12/28 10:07:16;;;;;;;;;;;;;;;25.43;61.13;96355.86;611800;231;65012;-69
2021/12/28 10:09:44;;;;;;;;;;;;;;;25.44;61.58;96354.74;612125;231;62804;-69
2021/12/28 10:12:12;;;;;;;;;;;;;;;25.42;61.35;96355.05;611754;232;65501;-69
2021/12/28 10:14:39;;;;;;;;;;;;;;;25.45;61.22;96357.13;612348;231;65083;-69
2021/12/28 10:17:07;;;;;;;;;;;;;;;25.46;61.65;96345.25;611888;232;65118;-69
2021/12/28 10:19:37;;;;;;;;;;;;;;;25.46;61.42;96347.94;612183;231;62932;-70
2021/12/28 10:22:22;;;;;;;;;;;;;;;25.46;61.53;96345.25;612707;231;62943;-69
2021/12/28 10:24:51;;;;;;;;;;;;;;;25.46;61.79;96350.63;611700;232;63611;-69
2021/12/28 10:27:20;;;;;;;;;;;;;;;25.46;61.90;96339.87;612195;231;63522;-69
2021/12/28 10:29:49;;;;;;;;;;;;;;;25.46;61.58;96342.56;611937;232;65312;-69
2021/12/28 10:32:18;;;;;;;;;;;;;;;25.47;61.88;96340.66;612365;231;65089;-69
2021/12/28 10:34:46;;;;;;;;;;;;;;;25.49;61.90;96337.66;611818;232;63273;-71
2021/12/28 10:37:24;;;;;;;;;;;;;;;25.50;61.82;96337.33;612387;231;65549;-70
2021/12/28 10:39:54;;;;;;;;;;;;;;;25.50;61.41;96334.64;612555;231;64951;-71
2021/12/28 10:42:41;;;;;;;;;;;;;;;25.51;62.36;96338.11;611934;232;65435;-71
2021/12/28 10:45:10;;;;;;;;;;;;;;;25.54;61.54;96334.81;612779;231;65057;-72
2021/12/28 10:47:38;;;;;;;;;;;;;;;25.53;62.19;96331.31;611923;232;65007;-70
2021/12/28 10:50:24;;;;;;;;;;;;;;;25.55;61.96;96339.86;613061;230;65467;-69
2021/12/28 10:53:00;;;;;;;;;;;;;;;25.56;61.83;96333.37;624435;227;65350;-69
2021/12/28 10:55:24;;;;;;;;;;;;;;;25.56;61.88;96333.37;617049;230;65239;-70
2021/12/28 10:57:52;;;;;;;;;;;;;;;25.57;62.58;96334.18;619735;229;63335;-70
2021/12/28 11:00:29;;;;;;;;;;;;;;;25.56;62.23;96336.05;619675;227;46093;-68
2021/12/28 11:03:16;;;;;;;;;;;;;;;25.56;62.18;96330.67;619573;229;64883;-70
2021/12/28 11:05:47;;;;;;;;;;;;;;;25.56;62.36;96324.51;619572;229;65580;-68
2021/12/28 11:08:15;;;;;;;;;;;;;;;25.51;61.03;96320.09;619497;229;62973;-68
2021/12/28 11:10:44;;;;;;;;;;;;;;;25.51;61.46;96324.66;619482;229;62763;-70
2021/12/28 11:13:15;;;;;;;;;;;;;;;25.50;62.02;96326.56;619566;229;63129;-70
2021/12/28 11:15:45;;;;;;;;;;;;;;;25.50;62.08;96323.09;619583;229;65628;-70
2021/12/28 11:18:23;;;;;;;;;;;;;;;25.52;62.15;96318.20;619723;229;64903;-70
2021/12/28 11:20:51;;;;;;;;;;;;;;;25.54;62.22;96329.44;619355;229;65488;-69
2021/12/28 11:23:20;;;;;;;;;;;;;;;25.51;61.89;96327.36;619562;229;65094;-69
2021/12/28 11:25:49;;;;;;;;;;;;;;;25.51;62.20;96325.48;619457;229;65096;-66
2021/12/28 11:28:19;;;;;;;;;;;;;;;25.52;61.17;96332.43;619396;228;65480;-69
2021/12/28 11:30:48;;;;;;;;;;;;;;;25.52;60.97;96323.58;619578;229;65137;-70
2021/12/28 11:33:15;;;;;;;;;;;;;;;25.56;60.96;96321.81;615137;229;65083;-68
2021/12/28 11:35:43;;;;;;;;;;;;;;;25.55;59.80;96322.94;619703;229;64979;-71
2021/12/28 11:38:10;;;;;;;;;;;;;;;25.54;60.39;96319.46;619634;229;65018;-69
2021/12/28 11:40:38;;;;;;;;;;;;;;;25.56;58.55;96324.51;619704;229;65024;-71
2021/12/28 11:43:05;;;;;;;;;;;;;;;25.56;59.64;96319.91;624557;226;65707;-70
2021/12/28 11:45:33;;;;;;;;;;;;;;;25.56;57.72;96324.51;626789;226;65028;-70
2021/12/28 11:48:03;;;;;;;;;;;;;;;25.55;57.89;96310.27;625566;226;65012;-70
2021/12/28 11:50:30;;;;;;;;;;;;;;;25.54;57.29;96311.39;626054;226;64079;-70
2021/12/28 11:52:57;;;;;;;;;;;;;;;25.54;57.51;96308.70;624761;227;65174;-71
2021/12/28 11:55:25;;;;;;;;;;;;;;;25.54;56.73;96314.08;624670;227;62730;-70
2021/12/28 11:57:54;;;;;;;;;;;;;;;25.54;57.36;96308.70;624767;227;62743;-71
2021/12/28 12:00:22;;;;;;;;;;;;;;;25.54;57.53;96315.98;624883;227;62711;-70
2021/12/28 12:02:52;;;;;;;;;;;;;;;25.52;55.87;96305.53;624834;227;63864;-70
2021/12/28 12:05:23;;;;;;;;;;;;;;;25.55;56.22;96317.55;624695;226;64647;-70
2021/12/28 12:08:08;;;;;;;;;;;;;;;25.54;57.43;96318.67;624885;227;64902;-70
2021/12/28 12:10:37;;;;;;;;;;;;;;;25.54;56.61;96321.37;624884;227;62824;-69
2021/12/28 12:13:09;;;;;;;;;;;;;;;25.55;56.60;96322.94;624474;226;62786;-71
2021/12/28 12:15:39;;;;;;;;;;;;;;;25.51;56.97;96321.97;623653;227;64729;-63
2021/12/28 12:18:08;;;;;;;;;;;;;;;25.54;57.92;96326.75;617757;229;63851;-69
2021/12/28 12:20:36;;;;;;;;;;;;;;;25.54;58.22;96326.75;617693;229;62704;-70
2021/12/28 12:23:08;;;;;;;;;;;;;;;25.53;57.71;96325.14;617806;229;64962;-70
2021/12/28 12:25:50;;;;;;;;;;;;;;;25.50;58.67;96325.78;617777;229;62788;-70
2021/12/28 12:28:31;;;;;;;;;;;;;;;25.54;58.54;96324.05;617695;229;65617;-69
2021/12/28 12:30:59;;;;;;;;;;;;;;;25.53;59.27;96325.14;617539;229;63234;-69
2021/12/28 12:33:28;;;;;;;;;;;;;;;25.49;59.23;96327.69;617754;229;63099;-70
2021/12/28 12:35:56;;;;;;;;;;;;;;;25.49;58.83;96325.00;617615;228;65549;-70
2021/12/28 12:38:26;;;;;;;;;;;;;;;25.51;60.12;96333.55;619684;227;63786;-69
2021/12/28 12:41:09;;;;;;;;;;;;;;;25.50;59.29;96340.02;620793;226;43764;-70
2021/12/28 12:43:41;;;;;;;;;;;;;;;25.50;59.81;96339.23;621141;227;63126;-69
2021/12/28 12:46:26;;;;;;;;;;;;;;;25.52;60.40;96334.33;620748;227;65013;-69
2021/12/28 12:48:56;;;;;;;;;;;;;;;25.52;60.22;96337.81;623984;227;65152;-68
2021/12/28 12:51:28;;;;;;;;;;;;;;;25.52;60.31;96335.12;625496;226;65082;-68
2021/12/28 12:54:01;;;;;;;;;;;;;;;25.54;59.53;96343.67;625944;226;62922;-69
2021/12/28 12:56:29;;;;;;;;;;;;;;;25.55;60.27;96347.15;626003;226;62982;-69
2021/12/28 12:59:04;;;;;;;;;;;;;;;25.55;60.57;96345.25;625935;226;66486;-68